Time;durP1;ratioP1;P1;durP2;ratioP2;P2;SDS_P1;SDS_P2;PMS_P1;PMS_P2;Temp;Humidity;BMP_temperature;BMP_pressure;BME280_temperature;BME280_humidity;BME280_pressure;Samples;Min_cycle;Max_cycle;Signal;HPM_P1;HPM_P2
2021/06/05 00:01:50;;;;;;;2.60;2.03;;;17.60;99.90;;;;;;5046721;28;20899;-67
2021/06/05 00:04:18;;;;;;;2.13;1.73;;;17.60;99.90;;;;;;5046785;28;20467;-68
2021/06/05 00:06:45;;;;;;;1.97;1.77;;;17.60;99.90;;;;;;5046794;28;20890;-68
2021/06/05 00:09:12;;;;;;;2.00;1.50;;;17.60;99.90;;;;;;5046652;28;20505;-67
2021/06/05 00:11:39;;;;;;;4.47;2.03;;;17.60;99.90;;;;;;5046632;28;20479;-67
2021/06/05 00:14:08;;;;;;;2.13;1.73;;;17.60;99.90;;;;;;5047040;28;20936;-67
2021/06/05 00:16:39;;;;;;;2.43;1.80;;;17.60;99.90;;;;;;5046489;28;20909;-68
2021/06/05 00:19:05;;;;;;;2.00;1.90;;;17.60;99.90;;;;;;5045698;28;20465;-67
2021/06/05 00:21:32;;;;;;;6.73;2.20;;;17.50;99.90;;;;;;5046532;28;20519;-67
2021/06/05 00:23:58;;;;;;;2.10;1.80;;;17.50;99.90;;;;;;5048392;28;20455;-68
2021/06/05 00:26:26;;;;;;;2.30;1.60;;;17.50;99.90;;;;;;5048402;28;20494;-67
2021/06/05 00:28:52;;;;;;;2.10;1.90;;;17.40;99.90;;;;;;5047695;28;20487;-67
2021/06/05 00:31:19;;;;;;;2.23;2.00;;;17.30;99.90;;;;;;5048106;28;20527;-68
2021/06/05 00:33:47;;;;;;;2.53;1.80;;;17.30;99.90;;;;;;5048059;28;20460;-67
2021/06/05 00:36:13;;;;;;;2.00;1.80;;;17.30;99.90;;;;;;5048220;28;20470;-67
2021/06/05 00:38:40;;;;;;;1.83;1.53;;;17.20;99.90;;;;;;5047555;28;21012;-67
2021/06/05 00:41:09;;;;;;;2.17;1.97;;;17.00;99.90;;;;;;5045557;28;20460;-68
2021/06/05 00:43:38;;;;;;;3.97;2.13;;;16.90;99.90;;;;;;5050307;28;20463;-68
2021/06/05 00:46:04;;;;;;;5.10;1.80;;;16.80;99.90;;;;;;5047014;28;20524;-66
2021/06/05 00:48:31;;;;;;;2.33;2.00;;;16.70;99.90;;;;;;5049493;28;20491;-67
2021/06/05 00:51:01;;;;;;;5.20;2.30;;;16.70;99.90;;;;;;5050711;28;20834;-67
2021/06/05 00:53:29;;;;;;;3.57;1.90;;;16.70;99.90;;;;;;5049990;28;20467;-68
2021/06/05 00:55:58;;;;;;;2.20;2.00;;;16.60;99.90;;;;;;5050792;28;20509;-68
2021/06/05 00:58:26;;;;;;;2.10;1.70;;;16.70;99.90;;;;;;5050511;28;20452;-68
2021/06/05 01:00:55;;;;;;;2.53;1.97;;;16.70;99.90;;;;;;5050616;28;20459;-68
2021/06/05 01:03:22;;;;;;;1.70;1.60;;;16.60;99.90;;;;;;5050367;28;20486;-67
2021/06/05 01:05:55;;;;;;;2.80;2.27;;;16.60;99.90;;;;;;5050390;28;20459;-68
2021/06/05 01:08:30;;;;;;;3.50;2.10;;;16.60;99.90;;;;;;5050082;28;20487;-68
2021/06/05 01:11:10;;;;;;;1.90;1.67;;;16.60;99.90;;;;;;5050269;28;20474;-67
2021/06/05 01:13:41;;;;;;;2.60;1.73;;;16.50;99.90;;;;;;5050475;28;20459;-67
2021/06/05 01:16:14;;;;;;;1.90;1.67;;;16.50;99.90;;;;;;5050622;28;20459;-68
2021/06/05 01:18:44;;;;;;;2.40;2.00;;;16.50;99.90;;;;;;5050077;28;20486;-68
2021/06/05 01:21:50;;;;;;;4.13;1.97;;;16.40;99.90;;;;;;5050653;28;20463;-68
2021/06/05 01:24:45;;;;;;;2.60;2.10;;;16.40;99.90;;;;;;5050683;28;20464;-68
2021/06/05 01:27:17;;;;;;;2.30;1.80;;;16.30;99.90;;;;;;5050093;28;20462;-68
2021/06/05 01:29:47;;;;;;;5.47;1.80;;;16.30;99.90;;;;;;5049975;28;20478;-68
2021/06/05 01:32:15;;;;;;;2.93;1.70;;;16.20;99.90;;;;;;5053338;28;20502;-68
2021/06/05 01:34:52;;;;;;;5.03;2.10;;;16.20;99.90;;;;;;5054305;28;20462;-68
2021/06/05 01:37:19;;;;;;;2.70;2.23;;;16.20;99.90;;;;;;5052841;28;20494;-68
2021/06/05 01:39:48;;;;;;;2.47;1.90;;;16.20;99.90;;;;;;5053995;28;20467;-68
2021/06/05 01:42:18;;;;;;;2.13;1.90;;;16.30;99.90;;;;;;5054064;28;20490;-68
2021/06/05 01:44:49;;;;;;;2.70;2.50;;;16.30;99.90;;;;;;5054341;28;20466;-68
2021/06/05 01:47:16;;;;;;;1.80;1.70;;;16.30;99.90;;;;;;5053924;28;20962;-68
2021/06/05 01:49:43;;;;;;;2.60;1.70;;;16.30;99.90;;;;;;5053919;28;20466;-68
2021/06/05 01:52:13;;;;;;;2.20;1.77;;;16.30;99.90;;;;;;5053831;28;21006;-68
2021/06/05 01:54:46;;;;;;;2.43;1.80;;;16.30;99.90;;;;;;5054096;28;20475;-68
2021/06/05 01:57:17;;;;;;;3.43;1.90;;;16.30;99.90;;;;;;5053901;28;20467;-68
2021/06/05 01:59:44;;;;;;;7.00;1.80;;;16.40;99.90;;;;;;5053676;28;20467;-68
2021/06/05 02:02:10;;;;;;;2.20;2.00;;;16.40;99.90;;;;;;5053591;28;21013;-68
2021/06/05 02:04:37;;;;;;;2.50;1.97;;;16.40;99.90;;;;;;5053908;28;20466;-68
2021/06/05 02:07:06;;;;;;;3.33;2.00;;;16.40;99.90;;;;;;5053619;28;20466;-68
2021/06/05 02:09:33;;;;;;;2.27;1.73;;;16.40;99.90;;;;;;5053557;28;20451;-68
2021/06/05 02:12:05;;;;;;;2.33;1.90;;;16.50;99.90;;;;;;5053720;28;20483;-68
2021/06/05 02:14:35;;;;;;;3.10;1.87;;;16.40;99.90;;;;;;5053704;28;20466;-68
2021/06/05 02:17:03;;;;;;;2.63;1.73;;;16.40;99.90;;;;;;5053513;28;20514;-68
2021/06/05 02:19:32;;;;;;;2.33;1.90;;;16.40;99.90;;;;;;5053502;28;20486;-68
2021/06/05 02:22:01;;;;;;;2.10;1.50;;;16.40;99.90;;;;;;5053515;28;21056;-68
2021/06/05 02:24:31;;;;;;;5.20;2.10;;;16.40;99.90;;;;;;5053501;28;20512;-69
2021/06/05 02:26:59;;;;;;;4.43;1.70;;;16.40;99.90;;;;;;5053388;28;20459;-68
2021/06/05 02:29:29;;;;;;;3.20;2.03;;;16.50;99.90;;;;;;5053185;28;20483;-68
2021/06/05 02:31:58;;;;;;;2.70;1.87;;;16.50;99.90;;;;;;5053056;28;20577;-68
2021/06/05 02:34:27;;;;;;;1.70;1.50;;;16.50;99.90;;;;;;5053484;28;20532;-68
2021/06/05 02:36:57;;;;;;;3.17;2.00;;;16.50;99.90;;;;;;5053334;28;20463;-68
2021/06/05 02:39:24;;;;;;;1.60;1.43;;;16.50;99.90;;;;;;5052997;28;20451;-68
2021/06/05 02:41:53;;;;;;;4.50;2.00;;;16.50;99.90;;;;;;5052896;28;20488;-68
2021/06/05 02:44:22;;;;;;;2.20;2.00;;;16.50;99.90;;;;;;5053039;28;20951;-68
2021/06/05 02:46:49;;;;;;;3.50;1.80;;;16.50;99.90;;;;;;5053139;28;20478;-68
2021/06/05 02:49:30;;;;;;;4.00;1.83;;;16.50;99.90;;;;;;5052605;28;20487;-68
2021/06/05 02:52:00;;;;;;;1.97;1.57;;;16.50;99.90;;;;;;5052998;28;20849;-68
2021/06/05 02:54:27;;;;;;;3.53;1.80;;;16.40;99.90;;;;;;5053129;28;20463;-68
2021/06/05 02:56:55;;;;;;;2.87;2.03;;;16.40;99.90;;;;;;5052894;28;20858;-68
2021/06/05 02:59:22;;;;;;;1.73;1.63;;;16.50;99.90;;;;;;5052771;28;20459;-68
2021/06/05 03:01:48;;;;;;;1.87;1.57;;;16.50;99.90;;;;;;5052752;28;20485;-68
2021/06/05 03:04:15;;;;;;;1.80;1.50;;;16.50;99.90;;;;;;5052801;28;20464;-68
2021/06/05 03:06:43;;;;;;;2.90;1.80;;;16.50;99.90;;;;;;5052937;28;20462;-68
2021/06/05 03:09:15;;;;;;;6.10;1.70;;;16.50;99.90;;;;;;5052255;28;20899;-68
2021/06/05 03:11:43;;;;;;;2.90;1.87;;;16.60;99.90;;;;;;5052621;28;21017;-68
2021/06/05 03:14:10;;;;;;;3.53;1.90;;;16.60;99.90;;;;;;5052431;28;20459;-68
2021/06/05 03:16:36;;;;;;;1.90;1.70;;;16.60;99.90;;;;;;5052687;28;20460;-68
2021/06/05 03:19:03;;;;;;;2.20;1.90;;;16.60;99.90;;;;;;5052087;28;20954;-68
2021/06/05 03:21:29;;;;;;;2.00;1.80;;;16.60;99.90;;;;;;5052432;28;20475;-68
2021/06/05 03:23:57;;;;;;;2.50;1.37;;;16.60;99.90;;;;;;5052410;28;20459;-68
2021/06/05 03:26:23;;;;;;;1.60;1.50;;;16.60;99.90;;;;;;5052532;28;20459;-68
2021/06/05 03:28:50;;;;;;;1.60;1.43;;;16.60;99.90;;;;;;5052003;28;20491;-68
2021/06/05 03:31:19;;;;;;;2.57;1.87;;;16.60;99.90;;;;;;5052004;28;20493;-68
2021/06/05 03:33:46;;;;;;;2.53;1.87;;;16.70;99.90;;;;;;5052519;28;20949;-68
2021/06/05 03:36:12;;;;;;;2.67;1.57;;;16.70;99.90;;;;;;5052161;28;20463;-68
2021/06/05 03:38:41;;;;;;;2.00;1.77;;;16.70;99.90;;;;;;5051824;28;20869;-68
2021/06/05 03:41:08;;;;;;;1.67;1.53;;;16.60;99.90;;;;;;5051947;28;20517;-68
2021/06/05 03:43:35;;;;;;;2.03;1.80;;;16.60;99.90;;;;;;5052147;28;20971;-68
2021/06/05 03:46:01;;;;;;;2.53;1.40;;;16.60;99.90;;;;;;5051900;28;20467;-68
2021/06/05 03:48:27;;;;;;;2.00;1.70;;;16.60;99.90;;;;;;5051619;28;20488;-68
2021/06/05 03:50:54;;;;;;;3.00;1.70;;;16.60;99.90;;;;;;5051708;28;20459;-68
2021/06/05 03:53:23;;;;;;;2.10;1.57;;;16.60;99.90;;;;;;5051095;28;20486;-68
2021/06/05 03:55:50;;;;;;;3.47;1.70;;;16.70;99.90;;;;;;5051857;28;20459;-68
2021/06/05 03:58:23;;;;;;;1.30;1.20;;;16.60;99.90;;;;;;5051308;28;20470;-68
2021/06/05 04:00:50;;;;;;;1.43;1.33;;;16.60;99.90;;;;;;5051798;28;20460;-68
2021/06/05 04:03:16;;;;;;;2.20;1.60;;;16.60;99.90;;;;;;5051555;28;20490;-68
2021/06/05 04:05:43;;;;;;;2.37;1.70;;;16.60;99.90;;;;;;5051687;28;20463;-68
2021/06/05 04:08:11;;;;;;;1.50;1.40;;;16.60;99.90;;;;;;5051120;28;20479;-68
2021/06/05 04:10:39;;;;;;;2.03;1.60;;;16.70;99.90;;;;;;5051598;28;20468;-68
2021/06/05 04:13:05;;;;;;;1.90;1.50;;;16.70;99.90;;;;;;5051292;28;20550;-68
2021/06/05 04:15:34;;;;;;;2.03;1.63;;;16.70;99.90;;;;;;5051285;28;20468;-68
2021/06/05 04:18:03;;;;;;;1.97;1.77;;;16.60;99.90;;;;;;5050931;28;20749;-68
2021/06/05 04:20:29;;;;;;;1.67;1.50;;;16.70;99.90;;;;;;5051504;28;20467;-68
2021/06/05 04:22:56;;;;;;;2.17;1.87;;;16.70;99.90;;;;;;5051120;28;20479;-68
2021/06/05 04:25:22;;;;;;;1.63;1.50;;;16.70;99.90;;;;;;5051203;28;21163;-68
2021/06/05 04:27:49;;;;;;;1.70;1.50;;;16.70;99.90;;;;;;5050927;28;20476;-68
2021/06/05 04:30:17;;;;;;;1.73;1.57;;;16.70;99.90;;;;;;5051139;28;20462;-69
2021/06/05 04:32:45;;;;;;;3.67;1.50;;;16.80;99.90;;;;;;5051086;28;20487;-69
2021/06/05 04:35:12;;;;;;;1.50;1.40;;;16.80;99.90;;;;;;5051018;28;20460;-68
2021/06/05 04:37:39;;;;;;;2.40;2.00;;;16.80;99.90;;;;;;5051261;28;20463;-68
2021/06/05 04:40:06;;;;;;;1.83;1.60;;;16.80;99.90;;;;;;5051272;28;20563;-69
2021/06/05 04:42:33;;;;;;;2.10;1.70;;;16.90;99.90;;;;;;5051052;28;20533;-69
2021/06/05 04:44:59;;;;;;;1.90;1.70;;;16.90;99.90;;;;;;5050836;28;20475;-68
2021/06/05 04:47:25;;;;;;;2.13;1.67;;;16.90;99.90;;;;;;5051138;28;20517;-68
2021/06/05 04:49:53;;;;;;;1.97;1.60;;;16.90;99.90;;;;;;5050848;28;20490;-68
2021/06/05 04:52:19;;;;;;;2.23;1.80;;;16.90;99.90;;;;;;5050924;28;20487;-69
2021/06/05 04:54:45;;;;;;;2.23;1.80;;;16.90;99.90;;;;;;5050890;28;20455;-69
2021/06/05 04:57:11;;;;;;;2.10;1.80;;;16.90;99.90;;;;;;5050743;28;20462;-68
2021/06/05 04:59:38;;;;;;;1.60;1.50;;;16.90;99.90;;;;;;5050448;28;20989;-69
2021/06/05 05:02:04;;;;;;;2.33;1.43;;;16.90;99.90;;;;;;5050607;28;20479;-69
2021/06/05 05:04:30;;;;;;;1.87;1.77;;;16.90;99.90;;;;;;5050778;28;20871;-69
2021/06/05 05:06:58;;;;;;;1.60;1.50;;;16.90;99.90;;;;;;5050644;28;20512;-68
2021/06/05 05:09:24;;;;;;;3.43;1.93;;;16.90;99.90;;;;;;5056080;28;20536;-69
2021/06/05 05:11:51;;;;;;;1.93;1.77;;;16.90;99.90;;;;;;5058487;28;20475;-69
2021/06/05 05:14:17;;;;;;;2.07;1.40;;;16.90;99.90;;;;;;5060089;28;20462;-69
2021/06/05 05:16:43;;;;;;;3.03;1.77;;;17.00;99.90;;;;;;5059495;28;20483;-68
2021/06/05 05:19:10;;;;;;;2.17;1.97;;;17.00;99.90;;;;;;5059153;28;20451;-68
2021/06/05 05:21:36;;;;;;;1.70;1.43;;;17.00;99.90;;;;;;5061160;28;20474;-69
2021/06/05 05:24:05;;;;;;;2.10;1.80;;;17.00;99.90;;;;;;5059550;28;20859;-69
2021/06/05 05:26:31;;;;;;;3.60;1.90;;;17.00;99.90;;;;;;5059296;28;20831;-69
2021/06/05 05:28:58;;;;;;;2.90;2.00;;;17.10;99.90;;;;;;5060508;28;20482;-69
2021/06/05 05:31:27;;;;;;;3.30;1.70;;;17.10;99.90;;;;;;5059010;28;20990;-69
2021/06/05 05:33:54;;;;;;;2.17;1.70;;;17.20;99.90;;;;;;5058248;28;20457;-69
2021/06/05 05:36:24;;;;;;;2.53;1.90;;;17.20;99.90;;;;;;5060345;28;20451;-69
2021/06/05 05:38:51;;;;;;;2.40;1.60;;;17.30;99.90;;;;;;5059198;28;20818;-69
2021/06/05 05:41:20;;;;;;;7.17;1.60;;;17.30;99.90;;;;;;5057824;28;20509;-69
2021/06/05 05:43:46;;;;;;;2.17;1.97;;;17.30;99.90;;;;;;5059128;28;20454;-69
2021/06/05 05:46:13;;;;;;;3.33;1.77;;;17.30;99.90;;;;;;5059264;28;21338;-69
2021/06/05 05:48:40;;;;;;;3.27;1.90;;;17.30;99.90;;;;;;5057573;28;20502;-69
2021/06/05 05:51:08;;;;;;;4.53;1.80;;;17.30;99.90;;;;;;5058890;28;20455;-69
2021/06/05 05:53:36;;;;;;;1.63;1.53;;;17.30;99.90;;;;;;5059744;28;20466;-69
2021/06/05 05:56:03;;;;;;;2.60;1.87;;;17.40;99.90;;;;;;5057945;28;20468;-69
2021/06/05 05:58:34;;;;;;;3.33;1.70;;;17.40;99.90;;;;;;5058333;28;20453;-69
2021/06/05 06:01:00;;;;;;;3.00;1.60;;;17.40;99.90;;;;;;5059776;28;20492;-69
2021/06/05 06:03:26;;;;;;;1.70;1.50;;;17.40;99.90;;;;;;5058973;28;20489;-69
2021/06/05 06:05:53;;;;;;;2.40;1.67;;;17.50;99.90;;;;;;5058087;28;21310;-69
2021/06/05 06:08:20;;;;;;;1.50;1.40;;;17.50;99.90;;;;;;5059272;28;20471;-69
2021/06/05 06:10:47;;;;;;;2.47;1.60;;;17.50;99.90;;;;;;5058683;28;20455;-68
2021/06/05 06:13:13;;;;;;;2.00;1.80;;;17.60;99.90;;;;;;5057771;28;20479;-69
2021/06/05 06:15:41;;;;;;;2.33;1.90;;;17.60;99.90;;;;;;5059758;28;20458;-69
2021/06/05 06:18:11;;;;;;;1.80;1.50;;;17.60;99.90;;;;;;5060820;28;20455;-69
2021/06/05 06:20:42;;;;;;;2.17;1.93;;;17.70;99.90;;;;;;5067311;28;20954;-69
2021/06/05 06:23:09;;;;;;;4.13;1.80;;;17.70;99.90;;;;;;5073406;28;20493;-69
2021/06/05 06:25:39;;;;;;;2.13;1.92;;;17.70;99.90;;;;;;5072445;28;20803;-70
2021/06/05 06:28:06;;;;;;;1.60;1.50;;;17.80;99.90;;;;;;5072686;28;20224;-70
2021/06/05 06:30:35;;;;;;;2.30;2.10;;;17.80;99.90;;;;;;5073609;28;20808;-71
2021/06/05 06:33:04;;;;;;;2.17;1.83;;;17.80;99.90;;;;;;5072069;28;21064;-71
2021/06/05 06:35:32;;;;;;;2.17;1.97;;;17.80;99.90;;;;;;5072527;28;20465;-71
2021/06/05 06:37:58;;;;;;;3.17;2.03;;;17.90;99.90;;;;;;5071999;28;20463;-71
2021/06/05 06:40:28;;;;;;;2.83;1.50;;;17.90;99.90;;;;;;5073107;28;20489;-71
2021/06/05 06:42:54;;;;;;;4.03;1.87;;;18.00;99.90;;;;;;5072336;28;20478;-69
2021/06/05 06:45:21;;;;;;;3.40;2.00;;;18.10;99.90;;;;;;5062731;28;21223;-70
2021/06/05 06:47:49;;;;;;;2.27;1.63;;;18.10;99.90;;;;;;5060741;28;20457;-69
2021/06/05 06:50:19;;;;;;;2.60;1.87;;;18.20;99.90;;;;;;5062695;28;20459;-69
2021/06/05 06:52:45;;;;;;;2.53;1.60;;;18.30;99.90;;;;;;5062167;28;20471;-69
2021/06/05 06:55:12;;;;;;;3.70;1.70;;;18.40;99.90;;;;;;5060578;28;20954;-69
2021/06/05 06:57:39;;;;;;;2.20;1.90;;;18.50;99.90;;;;;;5062190;28;20882;-69
2021/06/05 07:00:10;;;;;;;1.63;1.40;;;18.60;99.90;;;;;;5061937;28;20822;-69
2021/06/05 07:02:36;;;;;;;2.07;1.50;;;18.70;99.90;;;;;;5060700;28;20486;-69
2021/06/05 07:05:03;;;;;;;2.43;1.63;;;18.80;99.90;;;;;;5061578;28;20459;-69
2021/06/05 07:07:31;;;;;;;3.70;1.67;;;18.90;99.90;;;;;;5062405;28;20459;-69
2021/06/05 07:09:57;;;;;;;3.70;1.47;;;19.00;99.90;;;;;;5051298;28;21006;-68
2021/06/05 07:12:24;;;;;;;1.90;1.70;;;19.10;99.90;;;;;;5051197;28;20476;-69
2021/06/05 07:14:50;;;;;;;1.60;1.50;;;19.10;99.90;;;;;;5051362;28;20458;-69
2021/06/05 07:17:16;;;;;;;2.30;1.80;;;19.20;99.90;;;;;;5051096;28;20460;-69
2021/06/05 07:19:43;;;;;;;1.80;1.50;;;19.30;99.90;;;;;;5050579;28;20459;-69
2021/06/05 07:22:09;;;;;;;2.20;1.50;;;19.30;99.90;;;;;;5050677;28;20905;-69
2021/06/05 07:24:37;;;;;;;2.20;1.30;;;19.30;99.90;;;;;;5050443;28;20452;-69
2021/06/05 07:27:04;;;;;;;2.07;1.47;;;19.40;99.90;;;;;;5050992;28;20451;-69
2021/06/05 07:29:30;;;;;;;1.73;1.43;;;19.40;99.90;;;;;;5049574;28;20479;-70
2021/06/05 07:31:56;;;;;;;1.77;1.53;;;19.40;99.90;;;;;;5061840;28;20482;-71
2021/06/05 07:34:25;;;;;;;2.10;1.57;;;19.40;99.90;;;;;;5060484;28;20455;-70
2021/06/05 07:36:53;;;;;;;1.40;1.30;;;19.50;99.90;;;;;;5059923;28;20462;-70
2021/06/05 07:39:22;;;;;;;1.83;1.50;;;19.40;99.90;;;;;;5059687;28;20513;-71
2021/06/05 07:41:50;;;;;;;1.50;1.40;;;19.40;99.90;;;;;;5060104;28;20475;-70
2021/06/05 07:44:17;;;;;;;1.33;1.23;;;19.50;99.90;;;;;;5061455;28;20485;-70
2021/06/05 07:46:45;;;;;;;1.70;1.60;;;19.40;99.90;;;;;;5060606;28;20456;-70
2021/06/05 07:49:13;;;;;;;2.70;2.00;;;19.40;99.90;;;;;;5059013;28;20842;-70
2021/06/05 07:51:39;;;;;;;2.23;1.60;;;19.30;99.90;;;;;;5059722;28;20472;-70
2021/06/05 07:54:05;;;;;;;1.70;1.50;;;19.20;99.90;;;;;;5060323;28;20463;-70
2021/06/05 07:56:32;;;;;;;2.20;2.00;;;19.20;99.90;;;;;;5061232;28;20459;-70
2021/06/05 07:59:00;;;;;;;1.90;1.70;;;19.00;99.90;;;;;;5054394;28;20451;-70
2021/06/05 08:01:27;;;;;;;1.53;1.40;;;19.00;99.90;;;;;;5059008;28;20486;-70
2021/06/05 08:03:53;;;;;;;5.07;2.13;;;18.90;99.90;;;;;;5062346;28;21019;-71
2021/06/05 08:06:20;;;;;;;5.20;2.00;;;18.90;99.90;;;;;;5060394;28;20463;-70
2021/06/05 08:08:48;;;;;;;2.23;1.77;;;19.00;99.90;;;;;;5061016;28;20490;-70
2021/06/05 08:11:14;;;;;;;1.73;1.63;;;19.00;99.90;;;;;;5062045;28;20467;-70
2021/06/05 08:13:40;;;;;;;2.30;1.40;;;18.90;99.90;;;;;;5060267;28;21035;-70
2021/06/05 08:16:08;;;;;;;2.70;1.67;;;19.00;99.90;;;;;;5058748;28;20795;-70
2021/06/05 08:18:35;;;;;;;4.10;1.90;;;19.00;99.90;;;;;;5061108;28;20470;-70
2021/06/05 08:21:03;;;;;;;2.73;2.07;;;19.00;99.90;;;;;;5056707;28;20498;-71
2021/06/05 08:23:32;;;;;;;2.03;1.80;;;19.00;99.90;;;;;;5055356;28;20463;-71
2021/06/05 08:25:59;;;;;;;1.90;1.43;;;19.10;99.90;;;;;;5068641;28;20869;-70
2021/06/05 08:28:26;;;;;;;3.47;1.77;;;19.10;99.90;;;;;;5058767;28;20822;-71
2021/06/05 08:30:56;;;;;;;1.70;1.50;;;19.10;99.90;;;;;;5061478;28;20465;-70
2021/06/05 08:33:24;;;;;;;2.17;1.63;;;19.10;99.90;;;;;;5060766;28;20483;-70
2021/06/05 08:35:51;;;;;;;2.70;2.00;;;19.20;99.90;;;;;;5058877;28;20831;-71
2021/06/05 08:38:22;;;;;;;2.73;2.00;;;19.30;99.90;;;;;;5060944;28;20466;-71
2021/06/05 08:40:54;;;;;;;2.30;2.10;;;19.30;99.90;;;;;;5060278;28;21023;-71
2021/06/05 08:43:27;;;;;;;4.20;2.03;;;19.30;99.90;;;;;;5059415;28;20494;-71
2021/06/05 08:45:53;;;;;;;4.00;1.93;;;19.40;99.90;;;;;;5059807;28;20953;-71
2021/06/05 08:48:23;;;;;;;2.40;2.20;;;19.40;99.90;;;;;;5060392;28;20509;-70
2021/06/05 08:50:50;;;;;;;2.13;1.77;;;19.50;99.90;;;;;;5059826;28;20466;-70
2021/06/05 08:53:21;;;;;;;2.67;2.00;;;19.50;99.90;;;;;;5057712;28;20491;-70
2021/06/05 08:55:54;;;;;;;1.90;1.70;;;19.60;99.90;;;;;;5061424;28;20461;-71
2021/06/05 08:58:29;;;;;;;3.93;2.07;;;19.60;99.90;;;;;;5057434;28;20463;-70
2021/06/05 09:00:59;;;;;;;1.67;1.50;;;19.50;99.90;;;;;;5045083;28;20502;-69
2021/06/05 09:03:28;;;;;;;2.20;2.00;;;19.60;99.90;;;;;;5049994;28;20517;-69
2021/06/05 09:05:58;;;;;;;2.33;1.80;;;19.50;99.90;;;;;;5050374;28;20466;-70
2021/06/05 09:08:25;;;;;;;1.60;1.50;;;19.60;99.90;;;;;;5046184;28;20603;-69
2021/06/05 09:10:54;;;;;;;2.63;1.60;;;19.70;99.90;;;;;;5057661;28;20463;-69
2021/06/05 09:13:20;;;;;;;2.40;1.70;;;19.70;99.90;;;;;;5056530;28;20528;-69
2021/06/05 09:15:47;;;;;;;1.80;1.50;;;19.80;99.90;;;;;;5055022;28;20474;-69
2021/06/05 09:18:13;;;;;;;2.13;1.77;;;19.70;99.90;;;;;;5060155;28;20465;-69
2021/06/05 09:20:43;;;;;;;1.63;1.53;;;19.70;99.90;;;;;;5056292;28;20471;-69
2021/06/05 09:23:31;;;;;;;2.43;1.67;;;19.70;99.90;;;;;;5048074;28;20514;-69
2021/06/05 09:26:16;;;;;;;2.00;1.67;;;19.80;99.90;;;;;;5048729;28;20451;-69
2021/06/05 09:28:42;;;;;;;1.73;1.53;;;19.80;99.90;;;;;;5048318;28;20479;-69
2021/06/05 09:31:16;;;;;;;4.43;1.77;;;19.90;99.90;;;;;;5048496;28;20467;-70
2021/06/05 09:33:42;;;;;;;2.00;1.30;;;20.00;99.90;;;;;;5048940;28;20467;-69
2021/06/05 09:36:20;;;;;;;1.97;1.53;;;20.00;99.90;;;;;;5048381;28;20460;-69
2021/06/05 09:38:49;;;;;;;2.60;1.60;;;20.00;99.90;;;;;;5063951;28;20469;-69
2021/06/05 09:41:22;;;;;;;1.67;1.57;;;20.10;99.90;;;;;;5068221;28;20458;-68
2021/06/05 09:43:50;;;;;;;3.87;1.63;;;20.10;99.90;;;;;;5068291;28;20973;-69
2021/06/05 09:46:24;;;;;;;1.80;1.50;;;20.20;99.90;;;;;;5055997;28;20475;-69
2021/06/05 09:48:52;;;;;;;2.40;1.87;;;20.10;99.90;;;;;;5056533;28;20493;-69
2021/06/05 09:51:34;;;;;;;1.93;1.73;;;20.10;99.90;;;;;;5050977;28;20457;-69
2021/06/05 09:54:04;;;;;;;1.80;1.70;;;20.10;99.90;;;;;;5059717;28;20962;-69
2021/06/05 09:56:34;;;;;;;1.63;1.40;;;20.20;99.90;;;;;;5072458;28;20470;-70
2021/06/05 09:59:04;;;;;;;1.57;1.47;;;20.10;99.90;;;;;;5071880;28;20482;-69
2021/06/05 10:01:32;;;;;;;2.00;1.57;;;20.20;99.90;;;;;;5052208;28;20475;-69
2021/06/05 10:04:11;;;;;;;2.80;1.73;;;20.20;99.90;;;;;;5052077;28;20463;-69
2021/06/05 10:06:41;;;;;;;2.90;1.60;;;20.20;99.90;;;;;;5063406;28;20469;-68
2021/06/05 10:09:34;;;;;;;2.00;1.80;;;20.10;99.90;;;;;;5071985;28;21008;-69
2021/06/05 10:12:04;;;;;;;2.50;1.80;;;20.00;99.90;;;;;;5067465;28;20493;-68
2021/06/05 10:14:44;;;;;;;1.70;1.60;;;19.90;99.90;;;;;;5051566;28;20474;-68
2021/06/05 10:17:23;;;;;;;2.47;1.83;;;19.90;99.90;;;;;;5055296;28;20465;-70
2021/06/05 10:19:53;;;;;;;2.27;2.07;;;19.90;99.90;;;;;;5062641;28;20457;-70
2021/06/05 10:22:23;;;;;;;2.07;1.83;;;19.90;99.90;;;;;;5055435;28;20494;-69
2021/06/05 10:24:56;;;;;;;2.00;1.70;;;20.00;99.90;;;;;;5055376;28;20498;-69
2021/06/05 10:27:26;;;;;;;2.33;1.90;;;20.00;99.90;;;;;;5052547;28;20463;-69
2021/06/05 10:29:55;;;;;;;2.30;1.80;;;20.00;99.90;;;;;;5072131;28;20490;-69
2021/06/05 10:32:27;;;;;;;2.30;2.10;;;20.00;99.90;;;;;;5056932;28;21001;-70
2021/06/05 10:35:00;;;;;;;2.03;1.83;;;19.90;99.90;;;;;;5063523;28;20458;-69
2021/06/05 10:37:31;;;;;;;2.33;2.10;;;20.00;99.90;;;;;;5060080;28;20508;-70
2021/06/05 10:39:58;;;;;;;2.13;2.00;;;20.00;99.90;;;;;;5057736;28;20869;-69
2021/06/05 10:42:27;;;;;;;3.10;2.20;;;19.90;99.90;;;;;;5062167;28;20478;-70
2021/06/05 10:44:55;;;;;;;2.13;1.93;;;19.90;99.90;;;;;;5058820;28;20843;-69
2021/06/05 10:47:24;;;;;;;3.37;2.30;;;19.90;99.90;;;;;;5064593;28;21330;-69
2021/06/05 10:49:56;;;;;;;2.00;1.90;;;20.00;99.90;;;;;;5059164;28;20484;-70
2021/06/05 10:52:30;;;;;;;1.77;1.67;;;19.90;99.90;;;;;;5052296;28;20515;-70
2021/06/05 10:54:59;;;;;;;3.10;1.83;;;19.90;99.90;;;;;;5054641;28;20485;-70
2021/06/05 10:57:38;;;;;;;2.30;1.97;;;20.00;99.90;;;;;;5061511;28;20462;-69
2021/06/05 11:00:22;;;;;;;2.10;1.90;;;20.00;99.90;;;;;;5056519;28;20462;-70
2021/06/05 11:02:52;;;;;;;3.10;1.83;;;20.00;99.90;;;;;;5061853;28;20478;-70
2021/06/05 11:05:42;;;;;;;2.07;1.90;;;20.10;99.90;;;;;;5059738;28;20513;-70
2021/06/05 11:08:49;;;;;;;3.20;1.70;;;20.10;99.90;;;;;;5061536;28;20463;-69
2021/06/05 11:11:39;;;;;;;2.10;1.80;;;20.10;99.90;;;;;;5050910;28;20566;-70
2021/06/05 11:14:31;;;;;;;2.57;1.90;;;20.20;99.90;;;;;;5059925;28;20455;-70
2021/06/05 11:17:31;;;;;;;2.90;2.10;;;20.30;99.90;;;;;;5058729;28;20459;-70
2021/06/05 11:20:31;;;;;;;3.00;1.90;;;20.40;99.90;;;;;;5050216;28;20455;-69
2021/06/05 11:23:10;;;;;;;1.77;1.63;;;20.60;99.90;;;;;;5050653;28;20544;-68
2021/06/05 11:25:41;;;;;;;3.10;1.73;;;20.70;99.90;;;;;;5050835;28;20466;-70
2021/06/05 11:28:27;;;;;;;2.30;2.10;;;20.80;99.90;;;;;;5056679;28;20513;-70
2021/06/05 11:30:55;;;;;;;1.83;1.53;;;20.80;99.90;;;;;;5049908;28;20459;-69
2021/06/05 11:33:43;;;;;;;3.20;2.00;;;20.90;99.90;;;;;;5049568;28;20498;-70
2021/06/05 11:36:39;;;;;;;2.40;2.20;;;21.10;99.90;;;;;;5050045;28;20459;-70
2021/06/05 11:39:07;;;;;;;2.17;2.00;;;21.20;99.90;;;;;;5041708;28;20486;-70
2021/06/05 11:41:44;;;;;;;2.60;2.40;;;21.40;99.90;;;;;;5056714;28;20490;-70
2021/06/05 11:44:38;;;;;;;1.77;1.67;;;21.50;99.90;;;;;;5062824;28;20455;-70
2021/06/05 11:47:36;;;;;;;2.90;2.20;;;21.60;99.90;;;;;;5050306;28;20463;-71
2021/06/05 11:50:29;;;;;;;3.00;1.73;;;21.60;99.90;;;;;;5050450;28;20490;-70
2021/06/05 11:53:17;;;;;;;3.50;2.07;;;21.60;99.90;;;;;;5032918;28;20874;-70
2021/06/05 11:55:48;;;;;;;3.73;1.70;;;21.60;99.90;;;;;;5051813;28;20925;-69
2021/06/05 11:58:32;;;;;;;3.20;2.13;;;21.60;99.90;;;;;;5050733;28;20570;-70
2021/06/05 12:01:15;;;;;;;2.40;1.90;;;21.70;99.90;;;;;;5051772;28;20804;-70
2021/06/05 12:03:47;;;;;;;2.97;2.20;;;21.70;99.90;;;;;;5051648;28;20490;-70
2021/06/05 12:06:19;;;;;;;2.37;1.40;;;21.70;99.90;;;;;;5052128;28;20970;-70
2021/06/05 12:08:46;;;;;;;5.23;1.60;;;21.60;99.90;;;;;;5051000;28;20944;-70
2021/06/05 12:11:23;;;;;;;2.30;1.90;;;21.60;99.90;;;;;;5051311;28;21034;-70
2021/06/05 12:13:49;;;;;;;1.60;1.50;;;21.70;99.90;;;;;;5051315;28;20837;-70
2021/06/05 12:16:20;;;;;;;1.80;1.70;;;21.80;99.90;;;;;;5050573;28;20456;-71
2021/06/05 12:18:48;;;;;;;1.47;1.30;;;21.90;99.90;;;;;;5050910;28;20456;-71
2021/06/05 12:21:31;;;;;;;3.20;2.23;;;21.90;99.90;;;;;;5050838;28;20487;-70
2021/06/05 12:23:58;;;;;;;2.10;1.43;;;22.00;99.90;;;;;;5051308;28;20459;-70
2021/06/05 12:26:27;;;;;;;2.33;1.40;;;21.90;99.90;;;;;;5051061;28;20875;-70
2021/06/05 12:29:07;;;;;;;1.50;1.20;;;22.00;99.90;;;;;;5050605;28;20479;-71
2021/06/05 12:31:40;;;;;;;1.30;1.20;;;21.90;99.90;;;;;;5050716;28;20537;-70
2021/06/05 12:34:12;;;;;;;2.30;1.40;;;22.10;99.90;;;;;;5051141;28;20467;-69
2021/06/05 12:36:41;;;;;;;1.50;1.30;;;22.20;99.90;;;;;;5050872;28;20466;-70
2021/06/05 12:39:14;;;;;;;1.43;1.10;;;22.10;99.90;;;;;;5050793;28;20814;-70
2021/06/05 12:41:43;;;;;;;1.57;1.17;;;21.90;99.90;;;;;;5051187;28;20483;-70
2021/06/05 12:44:14;;;;;;;1.63;1.30;;;21.90;99.90;;;;;;5050871;28;20893;-69
2021/06/05 12:46:42;;;;;;;1.33;1.10;;;21.80;99.90;;;;;;5051061;28;20470;-70
2021/06/05 12:49:15;;;;;;;1.33;1.23;;;21.80;99.90;;;;;;5050471;28;20487;-70
2021/06/05 12:51:47;;;;;;;2.33;1.20;;;21.80;99.90;;;;;;5050771;28;20565;-70
2021/06/05 12:54:25;;;;;;;2.40;1.63;;;21.90;99.90;;;;;;5050725;28;20498;-70
2021/06/05 12:56:52;;;;;;;1.90;1.37;;;22.10;99.90;;;;;;5050961;28;20455;-71
2021/06/05 12:59:31;;;;;;;2.47;1.30;;;22.30;99.90;;;;;;5050313;28;20466;-70
2021/06/05 13:02:18;;;;;;;1.47;1.37;;;22.40;99.90;;;;;;5050909;28;20479;-71
2021/06/05 13:04:44;;;;;;;1.30;1.10;;;22.30;99.90;;;;;;5050762;28;20459;-71